createdAt,value
2017-05-15T00:00:06.340Z,12
2017-05-15T00:01:18.327Z,12
2017-05-15T00:02:31.328Z,12
2017-05-15T00:03:43.839Z,12
2017-05-15T00:04:56.840Z,12
2017-05-15T00:06:09.841Z,8
2017-05-15T00:07:23.047Z,12
2017-05-15T00:08:36.049Z,12
2017-05-15T00:09:49.061Z,8
2017-05-15T00:11:02.063Z,8
2017-05-15T00:12:15.024Z,12
2017-05-15T00:13:27.456Z,8
2017-05-15T00:14:40.383Z,8
2017-05-15T00:15:53.306Z,12
2017-05-15T00:17:05.737Z,12
2017-05-15T00:18:18.370Z,12
2017-05-15T00:19:30.315Z,12
2017-05-15T00:20:42.762Z,12
2017-05-15T00:21:55.738Z,8
2017-05-15T00:23:08.664Z,8
2017-05-15T00:24:20.830Z,8
2017-05-15T00:25:33.753Z,12
2017-05-15T00:26:46.674Z,12
2017-05-15T00:27:59.109Z,4
2017-05-15T00:29:12.025Z,12
2017-05-15T00:30:24.451Z,12
2017-05-15T00:31:36.879Z,12
2017-05-15T00:32:49.808Z,8
2017-05-15T00:34:02.730Z,12
2017-05-15T00:35:15.159Z,16
2017-05-15T00:36:28.083Z,12
2017-05-15T00:37:40.512Z,12
2017-05-15T00:38:52.948Z,12
2017-05-15T00:40:05.387Z,12
2017-05-15T00:41:17.818Z,12
2017-05-15T00:42:29.758Z,12
2017-05-15T00:43:42.192Z,16
2017-05-15T00:44:55.130Z,12
2017-05-15T00:46:08.009Z,12
2017-05-15T00:47:20.312Z,12
2017-05-15T00:48:33.101Z,12
2017-05-15T00:49:45.899Z,12
2017-05-15T00:50:58.685Z,12
2017-05-15T00:52:10.503Z,12
2017-05-15T00:53:22.814Z,12
2017-05-15T00:54:35.611Z,12
2017-05-15T00:55:47.923Z,12
2017-05-15T00:57:00.908Z,4
2017-05-15T00:58:13.233Z,16
2017-05-15T00:59:26.030Z,12
2017-05-15T01:00:38.339Z,12
2017-05-15T01:01:51.323Z,12
2017-05-15T01:03:04.130Z,12
2017-05-15T01:04:15.958Z,4
2017-05-15T01:05:28.269Z,4
2017-05-15T01:06:40.570Z,12
2017-05-15T01:07:53.357Z,12
2017-05-15T01:09:06.148Z,12
2017-05-15T01:10:18.941Z,12
2017-05-15T01:11:31.730Z,12
2017-05-15T01:12:44.036Z,12
2017-05-15T01:13:56.833Z,12
2017-05-15T01:15:09.141Z,12
2017-05-15T01:16:21.931Z,12
2017-05-15T01:17:34.726Z,12
2017-05-15T01:18:47.716Z,12
2017-05-15T01:20:00.510Z,12
2017-05-15T01:21:13.304Z,12
2017-05-15T01:22:26.100Z,12
2017-05-15T01:23:38.409Z,12
2017-05-15T01:24:51.209Z,12
2017-05-15T01:26:04.001Z,12
2017-05-15T01:27:16.797Z,12
2017-05-15T01:28:29.580Z,12
2017-05-15T01:29:42.678Z,12
2017-05-15T01:30:55.481Z,12
2017-05-15T01:32:08.374Z,12
2017-05-15T01:33:21.302Z,12
2017-05-15T01:34:33.731Z,16
2017-05-15T01:35:46.652Z,12
2017-05-15T01:36:59.570Z,12
2017-05-15T01:38:12.548Z,12
2017-05-15T01:39:25.770Z,12
2017-05-15T01:40:38.689Z,12
2017-05-15T01:41:51.613Z,12
2017-05-15T01:43:04.541Z,12
2017-05-15T01:44:17.464Z,12
2017-05-15T01:45:30.683Z,12
2017-05-15T01:46:43.613Z,12
2017-05-15T01:47:56.543Z,12
2017-05-15T01:49:09.465Z,8
2017-05-15T01:50:21.899Z,12
2017-05-15T01:51:35.017Z,12
2017-05-15T01:52:47.449Z,8
2017-05-15T01:54:00.373Z,12
2017-05-15T01:55:13.323Z,12
2017-05-15T01:56:26.545Z,12
2017-05-15T01:57:37.991Z,12
2017-05-15T01:58:50.913Z,12
2017-05-15T02:00:03.839Z,12
2017-05-15T02:01:16.766Z,12
2017-05-15T02:02:30.057Z,12
2017-05-15T02:03:42.983Z,12
2017-05-15T02:04:55.906Z,12
2017-05-15T02:06:08.825Z,12
2017-05-15T02:07:21.260Z,12
2017-05-15T02:08:34.182Z,12
2017-05-15T02:09:46.619Z,12
2017-05-15T02:10:59.538Z,12
2017-05-15T02:13:38.461Z,12
2017-05-15T02:14:51.383Z,12
2017-05-15T02:16:04.287Z,12
2017-05-15T02:17:16.109Z,12
2017-05-15T02:18:28.896Z,8
2017-05-15T02:19:41.681Z,12
2017-05-15T02:20:54.471Z,12
2017-05-15T02:22:07.255Z,12
2017-05-15T02:23:20.037Z,12
2017-05-15T02:24:31.869Z,12
2017-05-15T02:25:43.691Z,12
2017-05-15T02:26:56.477Z,12
2017-05-15T02:28:09.257Z,12
2017-05-15T02:29:22.343Z,12
2017-05-15T02:30:34.652Z,12
2017-05-15T02:31:47.436Z,12
2017-05-15T02:32:59.743Z,12
2017-05-15T02:34:12.048Z,12
2017-05-15T02:35:24.832Z,12
2017-05-15T02:36:37.134Z,8
2017-05-15T02:37:49.438Z,12
2017-05-15T02:39:02.225Z,4
2017-05-15T02:40:14.525Z,12
2017-05-15T02:41:26.831Z,12
2017-05-15T02:42:39.614Z,12
2017-05-15T02:43:51.943Z,12
2017-05-15T02:45:04.737Z,12
2017-05-15T02:46:16.552Z,12
2017-05-15T02:47:29.337Z,12
2017-05-15T02:48:40.681Z,12
2017-05-15T02:49:53.468Z,12
2017-05-15T02:51:05.770Z,12
2017-05-15T02:52:18.072Z,12
2017-05-15T02:53:30.857Z,12
2017-05-15T02:54:43.651Z,12
2017-05-15T02:55:56.436Z,12
2017-05-15T02:57:09.521Z,12
2017-05-15T02:58:22.301Z,16
2017-05-15T02:59:35.087Z,12
2017-05-15T03:00:47.870Z,12
2017-05-15T03:02:00.964Z,12
2017-05-15T03:03:13.888Z,12
2017-05-15T03:04:26.811Z,12
2017-05-15T03:05:39.732Z,12
2017-05-15T03:06:52.158Z,12
2017-05-15T03:08:05.384Z,12
2017-05-15T03:09:18.311Z,12
2017-05-15T03:10:31.234Z,12
2017-05-15T03:11:44.153Z,12
2017-05-15T03:12:56.945Z,12
2017-05-15T03:14:09.925Z,12
2017-05-15T03:15:22.923Z,12
2017-05-15T03:16:35.923Z,12
2017-05-15T03:17:48.467Z,12
2017-05-15T03:19:01.683Z,12
2017-05-15T03:20:14.189Z,12
2017-05-15T03:21:27.190Z,12
2017-05-15T03:22:39.696Z,12
2017-05-15T03:23:52.907Z,12
2017-05-15T03:25:05.910Z,12
2017-05-15T03:26:17.927Z,12
2017-05-15T03:27:30.925Z,12
2017-05-15T03:28:43.473Z,12
2017-05-15T03:29:56.674Z,12
2017-05-15T03:31:09.674Z,12
2017-05-15T03:32:22.223Z,12
2017-05-15T03:33:34.735Z,12
2017-05-15T03:34:48.035Z,12
2017-05-15T03:36:00.560Z,12
2017-05-15T03:37:13.561Z,12
2017-05-15T03:38:26.075Z,12
2017-05-15T03:39:38.578Z,12
2017-05-15T03:40:51.779Z,12
2017-05-15T03:42:04.780Z,12
2017-05-15T03:43:16.291Z,12
2017-05-15T03:44:29.315Z,12
2017-05-15T03:45:41.821Z,12
2017-05-15T03:46:54.820Z,12
2017-05-15T03:48:07.821Z,12
2017-05-15T03:49:20.370Z,12
2017-05-15T03:50:33.335Z,12
2017-05-15T03:51:46.253Z,12
2017-05-15T03:52:59.175Z,12
2017-05-15T03:54:12.095Z,12
2017-05-15T03:55:25.015Z,12
2017-05-15T03:56:37.641Z,12
2017-05-15T03:57:50.560Z,12
2017-05-15T03:59:03.481Z,12
2017-05-15T04:00:16.400Z,12
2017-05-15T04:01:29.315Z,12
2017-05-15T04:02:42.046Z,12
2017-05-15T04:03:54.966Z,12
2017-05-15T04:05:07.397Z,12
2017-05-15T04:06:20.323Z,4
2017-05-15T04:07:32.749Z,12
2017-05-15T04:08:44.691Z,16
2017-05-15T04:09:57.653Z,12
2017-05-15T04:11:10.573Z,12
2017-05-15T04:12:23.492Z,12
2017-05-15T04:13:36.237Z,12
2017-05-15T04:14:48.672Z,12
2017-05-15T04:16:01.596Z,12
2017-05-15T04:17:14.516Z,12
2017-05-15T04:18:27.434Z,12
2017-05-15T04:19:39.867Z,12
2017-05-15T04:20:52.787Z,12
2017-05-15T04:22:05.215Z,12
2017-05-15T04:23:17.653Z,12
2017-05-15T04:24:30.873Z,12
2017-05-15T04:25:43.793Z,12
2017-05-15T04:26:56.224Z,12
2017-05-15T04:28:08.652Z,12
2017-05-15T04:29:21.572Z,12
2017-05-15T04:30:34.490Z,12
2017-05-15T04:31:46.910Z,12
2017-05-15T04:32:59.813Z,12
2017-05-15T04:34:12.231Z,12
2017-05-15T04:35:24.644Z,12
2017-05-15T04:36:37.545Z,12
2017-05-15T04:37:50.445Z,12
2017-05-15T04:39:02.850Z,12
2017-05-15T04:40:15.749Z,12
2017-05-15T04:41:28.646Z,8
2017-05-15T04:42:41.543Z,12
2017-05-15T04:43:54.447Z,12
2017-05-15T04:45:07.352Z,12
2017-05-15T04:46:19.964Z,12
2017-05-15T04:47:32.864Z,12
2017-05-15T04:48:45.762Z,12
2017-05-15T04:49:58.664Z,12
2017-05-15T04:51:11.072Z,12
2017-05-15T04:52:23.976Z,12
2017-05-15T04:53:36.882Z,12
2017-05-15T04:54:49.293Z,12
2017-05-15T04:56:02.207Z,12
2017-05-15T04:57:15.107Z,12
2017-05-15T04:58:27.524Z,12
2017-05-15T04:59:39.933Z,12
2017-05-15T05:00:52.836Z,12
2017-05-15T05:02:05.779Z,12
2017-05-15T05:03:18.187Z,12
2017-05-15T05:04:30.591Z,12
2017-05-15T05:05:42.995Z,12
2017-05-15T05:06:55.891Z,12
2017-05-15T05:08:08.995Z,12
2017-05-15T05:09:20.996Z,12
2017-05-15T05:10:34.035Z,12
2017-05-15T05:11:47.078Z,12
2017-05-15T05:12:59.823Z,12
2017-05-15T05:14:12.865Z,12
2017-05-15T05:15:25.906Z,4
2017-05-15T05:16:38.448Z,4
2017-05-15T05:17:51.789Z,12
2017-05-15T05:19:04.832Z,12
2017-05-15T05:20:17.875Z,12
2017-05-15T05:21:30.919Z,12
2017-05-15T05:22:43.472Z,12
2017-05-15T05:23:56.752Z,12
2017-05-15T05:25:09.306Z,8
2017-05-15T05:26:22.350Z,12
2017-05-15T05:27:35.398Z,12
2017-05-15T05:28:48.647Z,12
2017-05-15T05:30:01.689Z,8
2017-05-15T05:31:14.730Z,4
2017-05-15T05:32:26.789Z,12
2017-05-15T05:33:39.326Z,16
2017-05-15T05:34:52.667Z,16
2017-05-15T05:36:05.715Z,12
2017-05-15T05:37:18.261Z,12
2017-05-15T05:38:31.207Z,12
2017-05-15T05:39:44.169Z,12
2017-05-15T05:40:57.069Z,12
2017-05-15T05:42:09.964Z,12
2017-05-15T05:43:22.865Z,12
2017-05-15T05:44:35.766Z,12
2017-05-15T05:45:48.167Z,12
2017-05-15T05:47:01.063Z,12
2017-05-15T05:48:13.474Z,12
2017-05-15T05:49:25.887Z,12
2017-05-15T05:50:38.300Z,12
2017-05-15T05:51:51.200Z,12
2017-05-15T05:53:03.607Z,12
2017-05-15T05:54:15.530Z,12
2017-05-15T05:55:28.430Z,12
2017-05-15T05:56:41.330Z,12
2017-05-15T05:57:54.233Z,12
2017-05-15T05:59:07.128Z,12
2017-05-15T06:00:19.531Z,12
2017-05-15T06:01:32.428Z,12
2017-05-15T06:02:45.142Z,12
2017-05-15T06:03:58.068Z,12
2017-05-15T06:05:10.967Z,12
2017-05-15T06:06:23.862Z,12
2017-05-15T06:07:37.063Z,12
2017-05-15T06:08:48.991Z,12
2017-05-15T06:10:01.893Z,12
2017-05-15T06:11:13.817Z,12
2017-05-15T06:12:26.715Z,12
2017-05-15T06:13:39.618Z,12
2017-05-15T06:14:52.520Z,8
2017-05-15T06:16:05.422Z,12
2017-05-15T06:17:18.329Z,12
2017-05-15T06:18:31.230Z,12
2017-05-15T06:19:43.641Z,12
2017-05-15T06:20:56.536Z,12
2017-05-15T06:22:08.457Z,12
2017-05-15T06:23:20.864Z,12
2017-05-15T06:24:33.573Z,12
2017-05-15T06:25:46.477Z,12
2017-05-15T06:26:59.383Z,12
2017-05-15T06:28:12.278Z,4
2017-05-15T06:29:25.177Z,4
2017-05-15T06:30:38.080Z,4
2017-05-15T06:31:50.982Z,12
2017-05-15T06:33:03.877Z,16
2017-05-15T06:34:16.283Z,16
2017-05-15T06:35:29.174Z,12
2017-05-15T06:36:41.102Z,12
2017-05-15T06:37:53.999Z,12
2017-05-15T06:39:06.900Z,12
2017-05-15T06:40:20.099Z,12
2017-05-15T06:41:33.011Z,12
2017-05-15T06:42:45.908Z,12
2017-05-15T06:43:58.327Z,12
2017-05-15T06:45:11.284Z,12
2017-05-15T06:46:23.196Z,8
2017-05-15T06:47:36.095Z,4
2017-05-15T06:48:49.002Z,16
2017-05-15T06:50:01.900Z,16
2017-05-15T06:51:15.004Z,12
2017-05-15T06:52:27.905Z,12
2017-05-15T06:53:40.803Z,12
2017-05-15T06:54:53.704Z,12
2017-05-15T06:56:06.605Z,12
2017-05-15T06:57:19.019Z,12
2017-05-15T06:58:31.941Z,12
2017-05-15T06:59:44.843Z,12
2017-05-15T07:00:57.254Z,12
2017-05-15T07:02:09.669Z,4
2017-05-15T07:03:22.572Z,4
2017-05-15T07:04:35.466Z,4
2017-05-15T07:05:48.361Z,12
2017-05-15T07:07:01.257Z,16
2017-05-15T07:08:13.677Z,12
2017-05-15T07:09:26.103Z,12
2017-05-15T07:10:38.021Z,12
2017-05-15T07:11:49.941Z,12
2017-05-15T07:13:02.842Z,12
2017-05-15T07:14:15.246Z,12
2017-05-15T07:15:28.146Z,8
2017-05-15T07:16:40.554Z,12
2017-05-15T07:17:52.961Z,12
2017-05-15T07:19:05.869Z,4
2017-05-15T07:20:18.273Z,4
2017-05-15T07:21:31.177Z,12
2017-05-15T07:22:43.598Z,16
2017-05-15T07:23:56.804Z,12
2017-05-15T07:25:09.215Z,16
2017-05-15T07:26:21.655Z,12
2017-05-15T07:27:34.553Z,4
2017-05-15T07:28:47.460Z,4
2017-05-15T07:29:59.868Z,12
2017-05-15T07:31:12.192Z,12
2017-05-15T07:32:24.010Z,12
2017-05-15T07:33:36.799Z,12
2017-05-15T07:34:49.877Z,12
2017-05-15T07:36:02.174Z,12
2017-05-15T07:37:14.953Z,12
2017-05-15T07:38:27.248Z,12
2017-05-15T07:39:40.027Z,8
2017-05-15T07:40:53.010Z,8
2017-05-15T07:42:05.792Z,12
2017-05-15T07:43:18.573Z,12
2017-05-15T07:44:31.358Z,12
2017-05-15T07:45:43.661Z,12
2017-05-15T07:46:56.439Z,12
2017-05-15T07:48:09.219Z,12
2017-05-15T07:49:22.008Z,12
2017-05-15T07:50:34.308Z,12
2017-05-15T07:51:46.609Z,12
2017-05-15T07:52:59.416Z,8
2017-05-15T07:54:11.712Z,8
2017-05-15T07:55:24.529Z,8
2017-05-15T07:56:37.511Z,12
2017-05-15T07:57:49.807Z,12
2017-05-15T07:59:02.633Z,12
2017-05-15T08:00:15.411Z,12
2017-05-15T08:01:28.192Z,12
2017-05-15T08:02:40.493Z,12
2017-05-15T08:03:52.788Z,4
2017-05-15T08:05:05.570Z,4
2017-05-15T08:06:18.348Z,4
2017-05-15T08:07:31.432Z,12
2017-05-15T08:08:43.729Z,12
2017-05-15T08:09:56.518Z,12
2017-05-15T08:11:09.303Z,8
2017-05-15T08:12:21.600Z,12
2017-05-15T08:13:34.581Z,12
2017-05-15T08:14:46.396Z,12
2017-05-15T08:15:59.177Z,4
2017-05-15T08:17:11.482Z,4
2017-05-15T08:18:24.265Z,12
2017-05-15T08:19:37.051Z,16
2017-05-15T08:20:49.356Z,12
2017-05-15T08:22:02.137Z,12
2017-05-15T08:23:14.439Z,4
2017-05-15T08:24:27.419Z,12
2017-05-15T08:25:39.715Z,12
2017-05-15T08:26:52.011Z,12
2017-05-15T08:28:04.796Z,8
2017-05-15T08:29:16.614Z,12
2017-05-15T08:30:29.393Z,12
2017-05-15T08:31:42.188Z,12
2017-05-15T08:32:54.487Z,12
2017-05-15T08:34:07.272Z,12
2017-05-15T08:35:19.387Z,12
2017-05-15T08:36:32.166Z,12
2017-05-15T08:37:44.945Z,12
2017-05-15T08:38:57.722Z,12
2017-05-15T08:40:10.701Z,12
2017-05-15T08:41:23.478Z,12
2017-05-15T08:42:36.263Z,12
2017-05-15T08:43:49.049Z,4
2017-05-15T08:45:01.826Z,12
2017-05-15T08:46:14.814Z,16
2017-05-15T08:47:27.594Z,12
2017-05-15T08:48:40.373Z,12
2017-05-15T08:49:53.157Z,12
2017-05-15T08:51:05.943Z,12
2017-05-15T08:52:18.721Z,12
2017-05-15T08:53:31.501Z,16
2017-05-15T08:54:43.332Z,12
2017-05-15T08:55:56.118Z,4
2017-05-15T08:57:08.417Z,4
2017-05-15T08:58:21.209Z,12
2017-05-15T08:59:33.989Z,12
2017-05-15T09:00:45.809Z,12
2017-05-15T09:01:58.105Z,4
2017-05-15T09:03:10.886Z,12
2017-05-15T09:04:23.669Z,12
2017-05-15T09:05:35.967Z,12
2017-05-15T09:06:48.747Z,12
2017-05-15T09:08:14.636Z,12
2017-05-15T09:09:27.421Z,4
2017-05-15T09:10:40.197Z,4
2017-05-15T09:11:53.280Z,12
2017-05-15T09:13:06.069Z,12
2017-05-15T09:14:17.403Z,4
2017-05-15T09:15:30.186Z,4
2017-05-15T09:16:42.485Z,12
2017-05-15T09:17:54.982Z,16
2017-05-15T09:19:07.761Z,16
2017-05-15T09:20:19.092Z,12
2017-05-15T09:21:31.884Z,12
2017-05-15T09:22:44.669Z,12
2017-05-15T09:23:56.968Z,12
2017-05-15T09:25:09.264Z,16
2017-05-15T09:26:21.560Z,16
2017-05-15T09:27:33.375Z,12
2017-05-15T09:28:46.358Z,20
2017-05-15T09:29:59.144Z,8
2017-05-15T09:31:11.922Z,8
2017-05-15T09:32:23.739Z,12
2017-05-15T09:33:36.539Z,16
2017-05-15T09:34:49.046Z,16
2017-05-15T09:36:01.824Z,20
2017-05-15T09:37:14.607Z,20
2017-05-15T09:38:27.385Z,24
2017-05-15T09:39:39.209Z,28
2017-05-15T09:40:51.987Z,28
2017-05-15T09:42:04.768Z,32
2017-05-15T09:43:17.545Z,36
2017-05-15T09:44:30.369Z,40
2017-05-15T09:45:43.450Z,40
2017-05-15T09:46:56.231Z,44
2017-05-15T09:48:09.012Z,44
2017-05-15T09:49:20.358Z,48
2017-05-15T09:50:32.852Z,52
2017-05-15T09:51:45.637Z,52
2017-05-15T09:52:58.411Z,60
2017-05-15T09:54:10.758Z,64
2017-05-15T09:55:23.533Z,68
2017-05-15T09:56:36.314Z,68
2017-05-15T09:57:49.096Z,72
2017-05-15T09:59:01.881Z,76
2017-05-15T10:00:13.698Z,88
2017-05-15T10:01:26.677Z,96
2017-05-15T10:02:39.455Z,96
2017-05-15T10:03:52.235Z,100
2017-05-15T10:05:05.017Z,108
2017-05-15T10:06:17.315Z,112
2017-05-15T10:07:30.393Z,116
2017-05-15T10:08:43.177Z,112
2017-05-15T10:09:55.958Z,108
2017-05-15T10:11:08.738Z,104
2017-05-15T10:12:21.037Z,100
2017-05-15T10:13:33.880Z,104
2017-05-15T10:14:46.182Z,104
2017-05-15T10:15:58.960Z,112
2017-05-15T10:17:11.740Z,124
2017-05-15T10:18:24.034Z,140
2017-05-15T10:19:36.347Z,148
2017-05-15T10:20:49.131Z,160
2017-05-15T10:22:01.913Z,172
2017-05-15T10:23:14.896Z,172
2017-05-15T10:24:27.672Z,180
2017-05-15T10:25:40.457Z,172
2017-05-15T10:26:52.275Z,164
2017-05-15T10:28:04.575Z,152
2017-05-15T10:29:17.175Z,136
2017-05-15T10:30:29.955Z,136
2017-05-15T10:31:42.847Z,132
2017-05-15T10:32:55.758Z,124
2017-05-15T10:34:07.877Z,136
2017-05-15T10:35:20.289Z,168
2017-05-15T10:36:33.186Z,196
2017-05-15T10:37:46.091Z,236
2017-05-15T10:38:58.994Z,256
2017-05-15T10:40:11.888Z,252
2017-05-15T10:41:24.788Z,260
2017-05-15T10:42:37.196Z,252
2017-05-15T10:43:50.100Z,244
2017-05-15T10:45:02.027Z,244
2017-05-15T10:46:13.455Z,236
2017-05-15T10:47:26.428Z,204
2017-05-15T10:48:39.326Z,188
2017-05-15T10:49:52.232Z,200
2017-05-15T10:51:04.841Z,156
2017-05-15T10:52:17.737Z,140
2017-05-15T10:53:30.636Z,172
2017-05-15T10:54:43.039Z,212
2017-05-15T10:55:55.449Z,236
2017-05-15T10:57:07.854Z,256
2017-05-15T10:58:19.776Z,256
2017-05-15T10:59:32.673Z,208
2017-05-15T11:00:45.096Z,208
2017-05-15T11:01:57.995Z,220
2017-05-15T11:03:10.890Z,204
2017-05-15T11:04:23.296Z,184
2017-05-15T11:05:35.704Z,172
2017-05-15T11:06:48.598Z,196
2017-05-15T11:08:00.520Z,220
2017-05-15T11:09:13.418Z,244
2017-05-15T11:10:25.825Z,256
2017-05-15T11:11:38.724Z,252
2017-05-15T11:12:50.643Z,240
2017-05-15T11:14:03.539Z,236
2017-05-15T11:15:15.946Z,252
2017-05-15T11:16:28.761Z,236
2017-05-15T11:17:41.749Z,244
2017-05-15T11:18:54.060Z,240
2017-05-15T11:20:06.842Z,264
2017-05-15T11:21:19.621Z,304
2017-05-15T11:22:31.937Z,244
2017-05-15T11:23:44.734Z,224
2017-05-15T11:24:57.041Z,236
2017-05-15T11:26:09.835Z,248
2017-05-15T11:27:22.623Z,276
2017-05-15T11:28:34.928Z,312
2017-05-15T11:29:47.720Z,416
2017-05-15T11:31:00.021Z,452
2017-05-15T11:32:12.314Z,416
2017-05-15T11:33:24.625Z,452
2017-05-15T11:34:37.614Z,460
2017-05-15T11:35:50.399Z,404
2017-05-15T11:37:03.182Z,380
2017-05-15T11:38:15.483Z,320
2017-05-15T11:39:28.465Z,336
2017-05-15T11:40:41.246Z,328
2017-05-15T11:41:53.546Z,400
2017-05-15T11:43:06.334Z,1024
2017-05-15T11:44:19.176Z,556
2017-05-15T11:45:31.963Z,1020
2017-05-15T11:46:44.751Z,476
2017-05-15T11:47:57.536Z,420
2017-05-15T11:49:09.847Z,1368
2017-05-15T11:50:22.148Z,524
2017-05-15T11:51:34.926Z,548
2017-05-15T11:52:47.709Z,1196
2017-05-15T11:54:00.015Z,640
2017-05-15T11:55:12.324Z,1052
2017-05-15T11:56:25.111Z,644
2017-05-15T11:57:37.891Z,752
2017-05-15T11:58:50.674Z,2048
2017-05-15T12:00:03.466Z,2140
2017-05-15T12:01:16.447Z,748
2017-05-15T12:02:29.228Z,752
2017-05-15T12:03:42.032Z,596
2017-05-15T12:04:54.826Z,724
2017-05-15T12:06:07.610Z,2116
2017-05-15T12:07:19.909Z,544
2017-05-15T12:08:32.708Z,704
2017-05-15T12:09:44.534Z,544
2017-05-15T12:10:57.321Z,1096
2017-05-15T12:12:08.660Z,536
2017-05-15T12:13:20.965Z,448
2017-05-15T12:14:33.807Z,376
2017-05-15T12:15:46.109Z,524
2017-05-15T12:16:58.949Z,336
2017-05-15T12:18:11.729Z,296
2017-05-15T12:19:24.038Z,396
2017-05-15T12:20:36.882Z,492
2017-05-15T12:21:49.662Z,1912
2017-05-15T12:23:02.452Z,2264
2017-05-15T12:24:15.234Z,2360
2017-05-15T12:25:27.541Z,1156
2017-05-15T12:26:40.334Z,1668
2017-05-15T12:27:53.116Z,2172
2017-05-15T12:29:06.203Z,2060
2017-05-15T12:30:18.997Z,2112
2017-05-15T12:31:31.304Z,2120
2017-05-15T12:32:43.621Z,2208
2017-05-15T12:33:56.621Z,948
2017-05-15T12:35:08.927Z,2260
2017-05-15T12:36:21.238Z,1736
2017-05-15T12:37:33.060Z,644
2017-05-15T12:38:45.838Z,2036
2017-05-15T12:39:58.458Z,2368
2017-05-15T12:41:11.268Z,2420
2017-05-15T12:42:24.056Z,684
2017-05-15T12:43:37.045Z,2388
2017-05-15T12:44:49.842Z,2348
2017-05-15T12:46:03.501Z,2432
2017-05-15T12:47:15.323Z,1828
2017-05-15T12:48:27.622Z,1052
2017-05-15T12:49:39.927Z,1736
2017-05-15T12:50:52.708Z,1324
2017-05-15T12:52:05.490Z,1392
2017-05-15T12:53:18.274Z,2324
2017-05-15T12:54:30.580Z,2268
2017-05-15T12:55:42.879Z,720
2017-05-15T12:56:55.185Z,2348
2017-05-15T12:58:07.486Z,1188
2017-05-15T12:59:20.274Z,2228
2017-05-15T13:00:33.112Z,848
2017-05-15T13:01:45.574Z,1564
2017-05-15T13:02:58.371Z,872
2017-05-15T13:04:10.670Z,920
2017-05-15T13:05:23.453Z,904
2017-05-15T13:06:36.253Z,1052
2017-05-15T13:07:48.764Z,912
2017-05-15T13:09:01.557Z,1056
2017-05-15T13:10:13.888Z,2056
2017-05-15T13:11:25.741Z,1168
2017-05-15T13:12:38.894Z,2076
2017-05-15T13:13:50.717Z,2096
2017-05-15T13:15:03.500Z,1512
2017-05-15T13:16:15.830Z,664
2017-05-15T13:17:27.656Z,596
2017-05-15T13:18:40.742Z,584
2017-05-15T13:19:53.553Z,584
2017-05-15T13:21:05.403Z,656
2017-05-15T13:22:17.733Z,604
2017-05-15T13:23:30.525Z,616
2017-05-15T13:24:43.525Z,628
2017-05-15T13:25:56.315Z,636
2017-05-15T13:27:09.118Z,668
2017-05-15T13:28:21.917Z,696
2017-05-15T13:29:34.929Z,1108
2017-05-15T13:30:47.706Z,796
2017-05-15T13:32:00.510Z,1436
2017-05-15T13:33:12.820Z,564
2017-05-15T13:34:25.598Z,420
2017-05-15T13:35:38.681Z,432
2017-05-15T13:36:51.461Z,464
2017-05-15T13:38:04.242Z,492
2017-05-15T13:39:16.555Z,508
2017-05-15T13:40:28.681Z,580
2017-05-15T13:41:40.995Z,592
2017-05-15T13:42:53.303Z,588
2017-05-15T13:44:04.644Z,480
2017-05-15T13:45:17.429Z,452
2017-05-15T13:46:30.038Z,480
2017-05-15T13:47:42.831Z,840
2017-05-15T13:48:55.616Z,1784
2017-05-15T13:50:08.437Z,1824
2017-05-15T13:51:20.747Z,1748
2017-05-15T13:52:33.540Z,1764
2017-05-15T13:53:46.325Z,1792
2017-05-15T13:54:58.630Z,1608
2017-05-15T13:56:10.936Z,1868
2017-05-15T13:57:22.953Z,1900
2017-05-15T13:58:35.254Z,1928
2017-05-15T13:59:48.037Z,1912
2017-05-15T14:01:00.341Z,1892
2017-05-15T14:02:12.165Z,824
2017-05-15T14:03:24.949Z,532
2017-05-15T14:04:37.734Z,560
2017-05-15T14:05:50.524Z,512
2017-05-15T14:07:02.826Z,572
2017-05-15T14:08:15.324Z,628
2017-05-15T14:09:28.107Z,680
2017-05-15T14:10:40.893Z,1364
2017-05-15T14:11:53.674Z,2008
2017-05-15T14:13:06.757Z,592
2017-05-15T14:14:19.538Z,476
2017-05-15T14:15:31.838Z,536
2017-05-15T14:16:44.626Z,1892
2017-05-15T14:17:57.421Z,548
2017-05-15T14:19:10.211Z,500
2017-05-15T14:20:22.995Z,528
2017-05-15T14:21:35.307Z,560
2017-05-15T14:22:47.612Z,564
2017-05-15T14:24:00.113Z,612
2017-05-15T14:25:12.903Z,688
2017-05-15T14:26:25.733Z,2080
2017-05-15T14:27:38.035Z,1788
2017-05-15T14:28:50.822Z,2004
2017-05-15T14:30:03.125Z,1984
2017-05-15T14:31:15.918Z,636
2017-05-15T14:32:28.705Z,648
2017-05-15T14:33:41.491Z,1848
2017-05-15T14:34:54.280Z,1608
2017-05-15T14:36:07.064Z,1824
2017-05-15T14:37:19.363Z,1780
2017-05-15T14:38:32.148Z,1748
2017-05-15T14:39:44.934Z,1696
2017-05-15T14:40:57.719Z,1328
2017-05-15T14:42:10.027Z,1632
2017-05-15T14:43:22.869Z,1624
2017-05-15T14:44:35.666Z,1048
2017-05-15T14:45:48.609Z,1480
2017-05-15T14:47:00.449Z,1684
2017-05-15T14:48:12.275Z,1340
2017-05-15T14:49:24.584Z,616
2017-05-15T14:50:37.367Z,380
2017-05-15T14:51:50.474Z,364
2017-05-15T14:53:03.287Z,320
2017-05-15T14:54:15.632Z,296
2017-05-15T14:55:28.449Z,288
2017-05-15T14:56:40.292Z,960
2017-05-15T14:57:53.180Z,1296
2017-05-15T14:59:05.995Z,1328
2017-05-15T15:00:18.774Z,1316
2017-05-15T15:01:31.085Z,1308
2017-05-15T15:02:43.589Z,1296
2017-05-15T15:03:56.380Z,1248
2017-05-15T15:05:08.680Z,1224
2017-05-15T15:06:21.718Z,1208
2017-05-15T15:07:34.501Z,1224
2017-05-15T15:09:01.364Z,1192
2017-05-15T15:10:13.665Z,1180
2017-05-15T15:11:26.491Z,1176
2017-05-15T15:12:38.310Z,1180
2017-05-15T15:13:51.102Z,1236
2017-05-15T15:15:03.415Z,1236
2017-05-15T15:16:15.722Z,1304
2017-05-15T15:17:28.513Z,1368
2017-05-15T15:18:41.294Z,680
2017-05-15T15:19:54.091Z,616
2017-05-15T15:21:06.881Z,616
2017-05-15T15:22:19.183Z,668
2017-05-15T15:23:31.985Z,1300
2017-05-15T15:24:44.787Z,1096
2017-05-15T15:25:57.575Z,572
2017-05-15T15:27:09.879Z,896
2017-05-15T15:28:22.186Z,1004
2017-05-15T15:29:34.973Z,972
2017-05-15T15:30:47.755Z,896
2017-05-15T15:32:00.540Z,320
2017-05-15T15:33:13.320Z,296
2017-05-15T15:34:25.620Z,300
2017-05-15T15:35:38.405Z,320
2017-05-15T15:36:50.227Z,328
2017-05-15T15:38:02.532Z,548
2017-05-15T15:39:14.352Z,600
2017-05-15T15:40:27.137Z,360
2017-05-15T15:41:39.922Z,720
2017-05-15T15:42:52.706Z,676
2017-05-15T15:44:05.484Z,644
2017-05-15T15:45:17.785Z,624
2017-05-15T15:46:29.611Z,608
2017-05-15T15:47:42.403Z,596
2017-05-15T15:48:55.231Z,588
2017-05-15T15:50:08.011Z,592
2017-05-15T15:51:20.315Z,580
2017-05-15T15:52:33.098Z,568
2017-05-15T15:53:45.399Z,544
2017-05-15T15:54:58.188Z,548
2017-05-15T15:56:11.070Z,544
2017-05-15T15:57:23.992Z,528
2017-05-15T15:58:36.428Z,520
2017-05-15T15:59:48.860Z,512
2017-05-15T16:01:01.783Z,492
2017-05-15T16:02:14.707Z,496
2017-05-15T16:03:27.140Z,488
2017-05-15T16:04:41.065Z,504
2017-05-15T16:05:53.990Z,512
2017-05-15T16:07:06.914Z,492
2017-05-15T16:08:19.842Z,500
2017-05-15T16:09:33.763Z,492
2017-05-15T16:10:46.694Z,480
2017-05-15T16:11:59.619Z,484
2017-05-15T16:13:12.540Z,488
2017-05-15T16:14:25.463Z,488
2017-05-15T16:15:38.594Z,492
2017-05-15T16:16:51.037Z,500
2017-05-15T16:18:03.965Z,492
2017-05-15T16:19:15.905Z,480
2017-05-15T16:20:28.341Z,472
2017-05-15T16:21:41.500Z,484
2017-05-15T16:22:54.430Z,476
2017-05-15T16:24:07.354Z,476
2017-05-15T16:25:20.276Z,464
2017-05-15T16:26:33.206Z,472
2017-05-15T16:27:46.133Z,456
2017-05-15T16:28:59.057Z,448
2017-05-15T16:30:11.000Z,456
2017-05-15T16:31:24.018Z,452
2017-05-15T16:32:37.066Z,448
2017-05-15T16:33:50.115Z,456
2017-05-15T16:35:03.160Z,484
2017-05-15T16:36:16.201Z,524
2017-05-15T16:37:29.250Z,524
2017-05-15T16:38:41.847Z,520
2017-05-15T16:39:54.895Z,512
2017-05-15T16:41:07.438Z,504
2017-05-15T16:42:19.984Z,468
2017-05-15T16:43:33.031Z,460
2017-05-15T16:44:46.073Z,468
2017-05-15T16:45:59.121Z,436
2017-05-15T16:47:12.165Z,412
2017-05-15T16:48:24.710Z,388
2017-05-15T16:49:37.271Z,388
2017-05-15T16:50:50.315Z,400
2017-05-15T16:52:03.361Z,396
2017-05-15T16:53:16.403Z,368
2017-05-15T16:54:28.948Z,352
2017-05-15T16:55:41.491Z,352
2017-05-15T16:56:54.539Z,360
2017-05-15T16:58:07.576Z,364
2017-05-15T16:59:20.649Z,352
2017-05-15T17:00:33.193Z,348